Time;durP1;ratioP1;P1;durP2;ratioP2;P2;SDS_P1;SDS_P2;PMS_P1;PMS_P2;Temp;Humidity;BMP_temperature;BMP_pressure;BME280_temperature;BME280_humidity;BME280_pressure;Samples;Min_cycle;Max_cycle;Signal;HPM_P1;HPM_P2
2022/08/19 10:45:12;;;;;;;14.30;13.00;;;28.00;45.60;;;;;;5178976;27;20440;-73
2022/08/19 10:47:39;;;;;;;9.13;8.43;;;27.80;47.30;;;;;;5179351;27;20431;-69
2022/08/19 10:52:51;;;;;;;13.98;12.88;;;28.20;46.30;;;;;;5181880;27;20429;-73
2022/08/19 10:58:10;;;;;;;14.40;13.30;;;28.90;44.80;;;;;;5169297;27;20424;-77
2022/08/19 11:00:38;;;;;;;14.82;13.73;;;29.00;44.30;;;;;;5164501;27;20428;-77
2022/08/19 11:03:05;;;;;;;17.13;15.93;;;28.70;43.70;;;;;;5164745;27;20416;-75
2022/08/19 11:05:32;;;;;;;15.80;14.65;;;28.30;45.10;;;;;;5167043;27;20400;-73
2022/08/19 11:07:58;;;;;;;15.03;13.83;;;28.20;46.00;;;;;;5166571;27;20432;-74
2022/08/19 11:10:25;;;;;;;15.00;13.90;;;28.40;46.20;;;;;;5165649;27;20456;-72
2022/08/19 11:12:54;;;;;;;16.65;15.45;;;28.50;45.70;;;;;;5164243;27;20414;-72
2022/08/19 11:15:21;;;;;;;14.97;13.97;;;28.30;45.80;;;;;;5165537;27;20416;-72
2022/08/19 11:17:53;;;;;;;16.83;15.63;;;28.20;46.40;;;;;;5164320;27;20932;-77
2022/08/19 11:20:20;;;;;;;14.57;13.38;;;28.20;45.80;;;;;;5168488;27;20415;-76
2022/08/19 11:22:48;;;;;;;14.15;13.15;;;28.20;46.40;;;;;;5167450;27;20424;-77
2022/08/19 11:25:15;;;;;;;12.15;11.25;;;28.20;44.30;;;;;;5162132;27;20435;-74
2022/08/19 11:27:43;;;;;;;11.85;10.95;;;28.00;45.90;;;;;;5162931;27;20511;-77
2022/08/19 11:30:11;;;;;;;10.05;9.35;;;28.00;45.00;;;;;;5164977;27;20925;-72
2022/08/19 11:32:38;;;;;;;10.90;10.20;;;28.20;44.30;;;;;;5153967;27;20420;-68
2022/08/19 11:35:07;;;;;;;10.17;9.47;;;28.40;44.30;;;;;;5155597;27;20432;-70
2022/08/19 11:37:37;;;;;;;13.00;12.00;;;28.40;44.80;;;;;;5157110;27;20540;-69
2022/08/19 11:40:04;;;;;;;12.50;11.70;;;28.30;42.80;;;;;;5157441;27;20509;-72
2022/08/19 11:45:15;;;;;;;9.93;9.23;;;27.50;44.90;;;;;;5147891;27;20477;-72
2022/08/19 11:47:43;;;;;;;10.80;10.10;;;27.50;46.10;;;;;;5156951;27;20420;-71
2022/08/19 11:50:12;;;;;;;10.75;9.95;;;27.70;43.90;;;;;;5158195;27;20968;-71
2022/08/19 11:52:38;;;;;;;9.00;8.30;;;28.20;43.20;;;;;;5156169;27;20430;-71
2022/08/19 11:55:06;;;;;;;8.52;7.93;;;28.60;43.80;;;;;;5148382;27;20725;-71
2022/08/19 11:57:33;;;;;;;9.20;8.50;;;28.80;43.00;;;;;;5145971;27;20789;-69
2022/08/19 12:00:01;;;;;;;9.50;8.60;;;29.10;40.80;;;;;;5147057;27;20408;-69
2022/08/19 12:02:28;;;;;;;10.97;10.10;;;29.20;41.70;;;;;;5146596;27;20428;-70
2022/08/19 12:04:55;;;;;;;9.40;8.70;;;29.30;40.80;;;;;;5143146;27;20583;-70
2022/08/19 12:07:24;;;;;;;8.85;8.25;;;29.00;42.00;;;;;;5143378;27;20416;-71
2022/08/19 12:09:51;;;;;;;9.40;8.70;;;28.70;42.70;;;;;;5139828;27;20425;-71
2022/08/19 12:12:18;;;;;;;8.80;8.10;;;28.50;42.70;;;;;;5141463;27;20420;-71
2022/08/19 12:14:46;;;;;;;9.30;8.57;;;28.40;43.60;;;;;;5142647;27;20471;-70
2022/08/19 12:17:13;;;;;;;9.02;8.32;;;28.40;42.10;;;;;;5133450;27;20953;-76
2022/08/19 12:19:40;;;;;;;9.35;8.60;;;28.50;43.20;;;;;;5140514;27;20490;-72
2022/08/19 12:22:07;;;;;;;8.45;7.68;;;28.90;41.90;;;;;;5144591;27;20485;-74
2022/08/19 12:24:35;;;;;;;8.50;7.80;;;29.20;41.00;;;;;;5144875;27;20424;-75
2022/08/19 12:27:02;;;;;;;8.30;7.60;;;29.60;39.80;;;;;;5142878;27;20981;-74
2022/08/19 12:29:30;;;;;;;8.17;7.30;;;29.90;39.70;;;;;;5147434;27;20469;-74
2022/08/19 12:32:00;;;;;;;8.63;7.90;;;29.90;38.10;;;;;;5142438;27;20435;-74
2022/08/19 12:34:29;;;;;;;8.50;7.90;;;30.00;38.40;;;;;;5148209;27;20605;-76
2022/08/19 12:36:56;;;;;;;8.27;7.60;;;30.00;38.40;;;;;;5143438;27;20421;-74
2022/08/19 12:39:23;;;;;;;7.87;7.27;;;30.10;37.30;;;;;;5142032;27;20425;-75
2022/08/19 12:41:52;;;;;;;7.72;7.18;;;30.40;37.20;;;;;;5136859;27;20928;-74
2022/08/19 12:44:19;;;;;;;7.00;6.50;;;30.60;36.80;;;;;;5146863;27;20504;-75
2022/08/19 12:46:47;;;;;;;8.80;7.30;;;31.00;36.80;;;;;;5136253;27;20426;-74
2022/08/19 12:49:14;;;;;;;8.20;7.60;;;30.70;36.40;;;;;;5141486;27;20507;-74
2022/08/19 12:51:42;;;;;;;7.77;7.17;;;30.40;37.20;;;;;;5144070;27;20425;-75
2022/08/19 12:54:09;;;;;;;7.70;7.10;;;30.30;38.20;;;;;;5147881;27;20423;-75
2022/08/19 12:56:37;;;;;;;8.10;7.30;;;30.20;37.70;;;;;;5141420;27;20431;-76
2022/08/19 12:59:07;;;;;;;7.40;6.90;;;29.90;38.10;;;;;;5140785;27;20436;-77
2022/08/19 13:01:34;;;;;;;8.00;7.30;;;29.80;38.00;;;;;;5134151;27;20518;-76
2022/08/19 13:04:01;;;;;;;7.90;7.30;;;29.70;39.60;;;;;;5138988;27;20799;-76
2022/08/19 13:06:28;;;;;;;7.43;6.78;;;29.70;38.80;;;;;;5147933;27;20482;-77
2022/08/19 13:08:55;;;;;;;8.75;8.05;;;30.00;38.60;;;;;;5138357;27;20432;-76
2022/08/19 13:11:24;;;;;;;8.07;7.47;;;30.00;37.40;;;;;;5137065;27;20944;-77
2022/08/19 13:13:52;;;;;;;7.50;6.70;;;29.60;37.90;;;;;;5142635;27;20429;-72
2022/08/19 13:16:21;;;;;;;7.50;7.00;;;29.70;39.40;;;;;;5164623;27;20437;-71
2022/08/19 13:18:51;;;;;;;7.35;6.75;;;30.00;39.30;;;;;;5154133;27;20424;-73
2022/08/19 13:21:20;;;;;;;6.90;6.30;;;30.30;36.90;;;;;;5139415;27;20426;-75
2022/08/19 13:23:47;;;;;;;6.97;6.15;;;30.50;37.20;;;;;;5132180;27;20439;-69
2022/08/19 13:26:14;;;;;;;6.10;5.60;;;30.50;37.20;;;;;;5134712;27;20575;-73
2022/08/19 13:34:15;;;;;;;6.57;5.97;;;30.90;35.80;;;;;;5155533;27;20429;-71
2022/08/19 13:36:42;;;;;;;7.22;6.68;;;31.10;36.70;;;;;;5145459;27;20420;-73
2022/08/19 13:39:09;;;;;;;6.38;5.78;;;31.30;33.40;;;;;;5142814;27;20427;-71
2022/08/19 13:41:36;;;;;;;7.15;6.57;;;31.10;34.10;;;;;;5141969;27;20456;-71
2022/08/19 13:44:04;;;;;;;6.00;5.50;;;30.70;33.80;;;;;;5142758;27;20515;-73
2022/08/19 13:46:32;;;;;;;5.53;5.13;;;30.60;36.10;;;;;;5145473;27;20420;-73
2022/08/19 13:48:59;;;;;;;5.50;5.10;;;30.70;34.60;;;;;;5144969;27;20537;-73
2022/08/19 13:51:26;;;;;;;5.82;5.43;;;30.80;33.20;;;;;;5137229;27;20434;-73
2022/08/19 13:53:53;;;;;;;5.73;5.23;;;30.80;33.90;;;;;;5138593;27;20443;-71
2022/08/19 13:56:20;;;;;;;5.38;4.97;;;30.80;35.60;;;;;;5140042;27;20547;-73
2022/08/19 13:58:47;;;;;;;6.77;6.17;;;30.90;35.00;;;;;;5137566;27;20438;-72
2022/08/19 14:01:20;;;;;;;5.72;5.32;;;31.00;33.20;;;;;;5134818;27;20505;-71
2022/08/19 14:03:49;;;;;;;6.10;5.60;;;31.00;32.20;;;;;;5135815;27;20984;-73
2022/08/19 14:06:16;;;;;;;5.70;5.20;;;30.80;32.60;;;;;;5136919;27;20770;-74
2022/08/19 14:08:44;;;;;;;5.55;5.05;;;30.90;33.30;;;;;;5138929;27;20424;-73
2022/08/19 14:11:11;;;;;;;5.93;5.43;;;30.80;35.60;;;;;;5139359;27;20428;-73
2022/08/19 14:13:38;;;;;;;5.32;4.82;;;30.80;34.10;;;;;;5134660;27;20425;-73
2022/08/19 14:16:09;;;;;;;5.00;4.50;;;30.80;34.90;;;;;;5136482;27;20801;-73
2022/08/19 14:18:36;;;;;;;4.78;4.38;;;30.80;31.70;;;;;;5140446;27;20745;-71
2022/08/19 14:21:04;;;;;;;6.10;5.70;;;30.70;32.50;;;;;;5141594;27;20501;-72
2022/08/19 14:23:32;;;;;;;6.13;5.63;;;30.30;33.70;;;;;;5138195;27;20438;-74
2022/08/19 14:26:07;;;;;;;6.32;5.82;;;30.00;34.70;;;;;;5136170;27;20428;-72
2022/08/19 14:28:34;;;;;;;5.40;5.00;;;30.10;34.60;;;;;;5139515;27;20434;-74
2022/08/19 14:31:01;;;;;;;5.53;5.13;;;30.10;34.80;;;;;;5141402;27;20435;-73
2022/08/19 14:33:27;;;;;;;5.32;4.82;;;30.20;34.70;;;;;;5135757;27;20572;-75
2022/08/19 14:35:54;;;;;;;5.50;5.10;;;30.30;35.80;;;;;;5138213;27;20426;-74
2022/08/19 14:38:22;;;;;;;5.60;5.10;;;30.30;34.90;;;;;;5136790;27;20427;-73
2022/08/19 14:40:51;;;;;;;4.88;4.57;;;30.30;34.60;;;;;;5135869;27;20961;-72
2022/08/19 14:43:19;;;;;;;5.47;4.97;;;30.50;34.30;;;;;;5141364;27;20451;-75
2022/08/19 14:45:45;;;;;;;5.30;4.90;;;30.60;34.60;;;;;;5136385;27;20435;-77
2022/08/19 14:48:12;;;;;;;5.20;4.70;;;30.50;33.20;;;;;;5146765;27;20882;-76
2022/08/19 14:50:39;;;;;;;6.35;5.10;;;30.20;34.10;;;;;;5136585;27;20764;-76
2022/08/19 14:53:08;;;;;;;5.00;4.60;;;30.10;34.80;;;;;;5148054;27;20405;-75
2022/08/19 14:55:36;;;;;;;4.60;4.20;;;30.00;34.80;;;;;;5132724;27;20531;-74
2022/08/19 14:58:03;;;;;;;4.45;4.07;;;30.10;36.10;;;;;;5141803;27;20887;-74
2022/08/19 15:00:30;;;;;;;4.50;4.10;;;30.10;34.10;;;;;;5133961;27;20443;-73
2022/08/19 15:02:57;;;;;;;5.00;4.07;;;30.20;35.20;;;;;;5138133;27;20738;-73
2022/08/19 15:05:24;;;;;;;5.38;4.32;;;30.30;34.80;;;;;;5141132;27;20429;-73
2022/08/19 15:07:51;;;;;;;4.45;3.40;;;30.30;34.60;;;;;;5134424;27;20496;-75
2022/08/19 15:10:18;;;;;;;4.25;3.60;;;30.10;33.40;;;;;;5123660;27;20907;-71
2022/08/19 15:12:48;;;;;;;3.70;3.50;;;30.20;34.00;;;;;;5145656;27;20416;-75
2022/08/19 15:15:17;;;;;;;3.97;3.58;;;30.20;34.30;;;;;;5145134;27;20532;-73
2022/08/19 15:17:44;;;;;;;4.00;3.60;;;30.20;32.40;;;;;;5144776;27;20427;-73
2022/08/19 15:20:13;;;;;;;3.90;3.30;;;30.10;34.30;;;;;;5146847;27;20773;-73
2022/08/19 15:22:41;;;;;;;3.58;3.28;;;30.10;33.40;;;;;;5144331;27;20794;-73
2022/08/19 15:25:10;;;;;;;3.65;3.35;;;30.00;32.60;;;;;;5145569;27;20416;-72
2022/08/19 15:27:38;;;;;;;3.88;3.45;;;29.70;32.90;;;;;;5149086;27;20818;-75
2022/08/19 15:30:08;;;;;;;3.60;3.30;;;29.50;34.00;;;;;;5148642;27;20413;-74
2022/08/19 15:32:35;;;;;;;4.40;3.70;;;29.50;35.40;;;;;;5150904;27;20500;-74
2022/08/19 15:35:03;;;;;;;3.60;3.30;;;29.60;34.30;;;;;;5149617;27;20412;-72
2022/08/19 15:37:30;;;;;;;4.60;3.28;;;29.70;32.90;;;;;;5155857;27;20427;-72
2022/08/19 15:39:56;;;;;;;3.70;3.20;;;29.50;33.10;;;;;;5153376;27;20435;-73
2022/08/19 15:42:25;;;;;;;3.00;2.70;;;29.50;33.20;;;;;;5163072;27;20665;-72
2022/08/19 15:44:52;;;;;;;4.18;2.70;;;29.50;33.10;;;;;;5164659;27;20420;-71
2022/08/19 15:47:20;;;;;;;3.38;2.55;;;29.40;33.70;;;;;;5162686;27;20419;-73
2022/08/19 15:49:47;;;;;;;3.03;2.50;;;29.30;34.40;;;;;;5153269;27;20409;-74
2022/08/19 15:52:14;;;;;;;2.80;2.60;;;29.00;35.10;;;;;;5133795;27;20939;-73
2022/08/19 15:54:41;;;;;;;3.67;3.00;;;28.70;35.30;;;;;;5126709;27;20502;-74
2022/08/19 16:08:10;;;;;;;4.00;3.20;;;28.60;37.60;;;;;;5117554;27;20454;-72
2022/08/19 16:10:38;;;;;;;3.55;3.00;;;28.40;38.90;;;;;;5123172;27;20415;-72
2022/08/19 16:13:06;;;;;;;3.20;2.90;;;28.20;39.40;;;;;;5136128;27;20463;-73
2022/08/19 16:15:33;;;;;;;4.60;3.60;;;28.00;40.10;;;;;;5114497;27;20422;-74
2022/08/19 16:18:02;;;;;;;3.13;2.80;;;27.80;40.50;;;;;;5114780;27;20419;-71
2022/08/19 16:20:30;;;;;;;3.55;2.80;;;27.80;41.00;;;;;;5117297;27;20547;-73
2022/08/19 16:22:57;;;;;;;3.00;2.80;;;27.60;41.20;;;;;;5123065;27;20422;-74
2022/08/19 16:25:26;;;;;;;3.40;3.10;;;27.50;41.60;;;;;;5125131;27;20422;-74
2022/08/19 16:27:53;;;;;;;3.63;3.30;;;27.50;42.10;;;;;;5121242;27;20422;-74
2022/08/19 16:30:20;;;;;;;4.82;3.28;;;27.50;41.90;;;;;;5129712;27;20426;-75
2022/08/19 16:32:47;;;;;;;4.18;3.05;;;27.50;42.00;;;;;;5125646;27;20416;-74
2022/08/19 16:35:15;;;;;;;5.67;3.27;;;27.40;42.10;;;;;;5130578;27;20807;-72
2022/08/19 16:37:41;;;;;;;3.67;2.70;;;27.40;42.20;;;;;;5130335;27;20505;-72
2022/08/19 16:40:09;;;;;;;3.30;3.03;;;27.30;42.30;;;;;;5128108;27;20428;-73
2022/08/19 16:42:36;;;;;;;3.78;2.45;;;27.20;42.30;;;;;;5125981;27;20460;-73
2022/08/19 16:45:07;;;;;;;3.50;2.40;;;27.10;42.40;;;;;;5118053;27;20870;-74
2022/08/19 16:47:35;;;;;;;3.00;2.58;;;27.00;43.30;;;;;;5126189;27;20966;-74
2022/08/19 16:50:01;;;;;;;3.50;2.50;;;26.90;43.60;;;;;;5121029;27;20432;-71
2022/08/19 16:52:30;;;;;;;3.10;2.42;;;26.80;43.90;;;;;;5125468;27;20903;-70
2022/08/19 16:54:57;;;;;;;2.40;2.17;;;26.70;44.10;;;;;;5091613;22;20828;-69
2022/08/19 16:57:24;;;;;;;2.80;2.60;;;26.60;43.80;;;;;;5039050;28;20429;-69
2022/08/19 16:59:51;;;;;;;3.00;2.30;;;26.60;44.20;;;;;;5037649;28;20433;-69
2022/08/19 17:02:20;;;;;;;2.20;2.00;;;26.50;44.70;;;;;;5026104;28;20812;-68
2022/08/19 17:04:48;;;;;;;2.78;2.10;;;26.40;45.40;;;;;;5037893;28;20460;-69
2022/08/19 17:07:15;;;;;;;3.70;1.80;;;26.30;45.80;;;;;;5038805;28;20518;-69
2022/08/19 17:09:43;;;;;;;3.08;2.20;;;26.30;46.10;;;;;;5040402;28;20443;-68
2022/08/19 17:12:11;;;;;;;3.30;2.08;;;26.20;46.60;;;;;;5031649;28;20442;-69
2022/08/19 17:14:38;;;;;;;2.53;2.10;;;26.10;47.10;;;;;;5042569;28;20566;-68
2022/08/19 17:17:05;;;;;;;2.33;2.10;;;26.10;47.20;;;;;;5036774;28;20662;-68
2022/08/19 17:19:32;;;;;;;4.50;2.37;;;26.10;47.40;;;;;;5042627;28;20413;-69
2022/08/19 17:21:59;;;;;;;4.10;2.78;;;26.20;47.50;;;;;;5038944;28;20734;-67
2022/08/19 17:24:26;;;;;;;2.60;2.20;;;26.20;47.20;;;;;;5033674;28;20862;-69
2022/08/19 17:26:54;;;;;;;3.40;2.28;;;26.20;47.40;;;;;;5042441;28;20516;-70
2022/08/19 17:29:21;;;;;;;3.80;2.28;;;26.10;47.60;;;;;;5039166;28;20469;-69
2022/08/19 17:31:48;;;;;;;3.47;2.53;;;26.00;48.10;;;;;;5042294;28;20427;-70
2022/08/19 17:34:16;;;;;;;2.77;2.20;;;26.00;48.40;;;;;;5043092;28;20498;-70
2022/08/19 17:36:43;;;;;;;3.60;2.30;;;26.00;48.40;;;;;;5040025;28;20576;-70
2022/08/19 17:39:10;;;;;;;2.92;2.40;;;26.00;48.50;;;;;;5040900;28;20417;-70
2022/08/19 17:41:37;;;;;;;2.63;2.42;;;26.00;49.10;;;;;;5042597;28;20421;-69
2022/08/19 17:44:05;;;;;;;3.72;2.53;;;25.90;50.00;;;;;;5042976;28;20457;-70
2022/08/19 17:46:32;;;;;;;2.53;2.33;;;25.70;53.50;;;;;;5036134;28;20540;-69
2022/08/19 17:48:59;;;;;;;3.30;2.60;;;25.50;53.20;;;;;;5041841;28;20812;-70
2022/08/19 17:51:40;;;;;;;3.47;2.90;;;25.50;53.50;;;;;;5039401;28;20924;-69
2022/08/19 17:54:09;;;;;;;3.43;3.10;;;25.30;53.70;;;;;;5037029;28;20512;-69
2022/08/19 17:56:36;;;;;;;3.30;3.00;;;25.00;54.40;;;;;;5039878;28;20479;-69
2022/08/19 17:59:06;;;;;;;5.00;3.10;;;25.00;54.50;;;;;;5038523;28;20527;-69
2022/08/19 18:01:33;;;;;;;3.50;3.10;;;24.90;54.60;;;;;;5039643;28;20519;-70
2022/08/19 18:04:00;;;;;;;3.50;3.20;;;24.90;55.00;;;;;;5040189;28;20520;-69
2022/08/19 18:06:27;;;;;;;3.20;2.90;;;24.90;55.30;;;;;;5038113;28;20456;-69
2022/08/19 18:08:54;;;;;;;3.40;2.80;;;24.80;55.20;;;;;;5037390;28;20480;-70
2022/08/19 18:11:21;;;;;;;3.63;3.30;;;24.80;55.20;;;;;;5034388;28;20418;-69
2022/08/19 18:13:48;;;;;;;4.63;3.10;;;24.80;55.40;;;;;;5036089;28;20524;-69
2022/08/19 18:16:19;;;;;;;3.90;3.13;;;24.80;55.40;;;;;;5040271;28;20485;-69
2022/08/19 18:18:46;;;;;;;3.63;2.80;;;24.70;55.50;;;;;;5038509;28;20448;-70
2022/08/19 18:21:13;;;;;;;3.10;2.80;;;24.70;55.70;;;;;;5040330;28;20579;-69
2022/08/19 18:23:40;;;;;;;3.03;2.72;;;24.70;55.90;;;;;;5040529;28;20436;-69
2022/08/19 18:26:08;;;;;;;3.83;3.08;;;24.60;55.80;;;;;;5040371;28;20509;-70
2022/08/19 18:28:38;;;;;;;3.20;2.90;;;24.60;55.80;;;;;;5039837;28;20512;-69
2022/08/19 18:31:05;;;;;;;4.60;3.20;;;24.50;56.00;;;;;;5032062;28;20415;-68
2022/08/19 18:33:34;;;;;;;4.00;2.90;;;24.50;56.20;;;;;;5029175;28;20516;-69
2022/08/19 18:36:02;;;;;;;4.20;3.20;;;24.50;56.50;;;;;;5039786;28;20896;-69
2022/08/19 18:49:30;;;;;;;4.05;3.67;;;24.30;57.50;;;;;;5042632;28;20394;-70
2022/08/19 18:51:58;;;;;;;3.75;3.40;;;24.20;57.90;;;;;;5042825;28;20521;-70
2022/08/19 18:54:26;;;;;;;4.07;3.20;;;24.10;58.20;;;;;;5040927;28;20447;-73
2022/08/19 18:56:54;;;;;;;3.50;3.20;;;24.10;58.50;;;;;;5041169;28;20405;-71
2022/08/19 18:59:21;;;;;;;4.00;3.70;;;24.10;58.90;;;;;;5041419;28;20429;-71
2022/08/19 19:01:51;;;;;;;5.63;3.90;;;24.00;59.10;;;;;;5041264;28;20500;-72
2022/08/19 19:04:20;;;;;;;5.28;3.40;;;24.00;59.20;;;;;;5037997;28;21006;-70
2022/08/19 19:06:48;;;;;;;4.00;3.30;;;23.90;59.30;;;;;;5045499;28;20866;-72
2022/08/19 19:09:19;;;;;;;4.70;3.13;;;23.90;59.30;;;;;;5046543;28;20563;-71
2022/08/19 19:11:49;;;;;;;3.67;3.10;;;23.90;59.60;;;;;;5042946;28;20572;-70
2022/08/19 19:14:19;;;;;;;3.10;2.90;;;23.80;59.40;;;;;;5043026;28;20435;-69
2022/08/19 19:16:46;;;;;;;3.70;3.10;;;23.80;59.60;;;;;;5040142;28;20545;-68
2022/08/19 19:19:13;;;;;;;3.83;3.53;;;23.80;59.60;;;;;;5037491;28;20440;-69
2022/08/19 19:21:46;;;;;;;3.67;3.00;;;23.80;59.60;;;;;;5037270;28;20485;-69
2022/08/19 19:24:16;;;;;;;3.72;3.42;;;23.80;59.50;;;;;;5040523;28;20491;-68
2022/08/19 19:26:44;;;;;;;4.53;2.80;;;23.80;59.50;;;;;;5035687;28;20535;-69
2022/08/19 19:29:12;;;;;;;3.63;3.33;;;23.80;59.60;;;;;;5037417;28;20714;-69
2022/08/19 19:31:39;;;;;;;2.70;2.40;;;23.80;59.70;;;;;;5028586;28;20453;-68
2022/08/19 19:34:06;;;;;;;3.05;2.70;;;23.80;60.30;;;;;;5038758;28;20491;-68
2022/08/19 19:36:33;;;;;;;2.40;2.20;;;23.70;60.60;;;;;;5036564;28;20429;-68
2022/08/19 19:39:00;;;;;;;2.03;1.83;;;23.50;60.80;;;;;;5036238;28;20516;-68
2022/08/19 19:41:31;;;;;;;2.00;1.80;;;23.20;62.30;;;;;;5036690;28;21238;-68
2022/08/19 19:43:59;;;;;;;1.83;1.73;;;23.10;63.40;;;;;;5038773;28;20839;-69
2022/08/19 19:46:27;;;;;;;2.20;1.90;;;22.90;65.00;;;;;;5036880;28;20902;-68
2022/08/19 19:48:55;;;;;;;2.90;2.00;;;22.70;65.70;;;;;;5032256;28;20441;-68
2022/08/19 19:51:22;;;;;;;2.80;2.60;;;22.70;67.10;;;;;;5035119;28;20480;-68
2022/08/19 19:53:50;;;;;;;2.88;2.60;;;22.60;69.20;;;;;;5037678;28;20868;-68
2022/08/19 19:56:17;;;;;;;2.65;2.35;;;22.50;69.00;;;;;;5040403;28;20412;-68
2022/08/19 19:58:46;;;;;;;2.50;2.30;;;22.40;70.40;;;;;;5033002;28;20433;-68
2022/08/19 20:01:13;;;;;;;3.15;2.63;;;22.30;69.90;;;;;;5037944;28;20512;-68
2022/08/19 20:03:40;;;;;;;2.40;2.20;;;22.30;70.80;;;;;;5037989;28;20446;-67
2022/08/19 20:06:08;;;;;;;2.60;2.40;;;22.30;71.10;;;;;;5038977;28;20437;-68
2022/08/19 20:11:31;;;;;;;2.80;2.50;;;22.30;70.60;;;;;;5037684;28;20634;-67
2022/08/19 20:14:02;;;;;;;3.05;2.75;;;22.30;71.90;;;;;;5035476;28;20432;-67
2022/08/19 20:16:29;;;;;;;3.55;3.00;;;22.30;71.20;;;;;;5031644;28;20708;-68
2022/08/19 20:18:57;;;;;;;2.95;2.72;;;22.30;71.60;;;;;;5036198;28;20429;-67
2022/08/19 20:21:27;;;;;;;4.07;3.60;;;22.30;72.30;;;;;;5036319;28;20449;-68
2022/08/19 20:23:55;;;;;;;2.92;2.63;;;22.20;72.80;;;;;;5038552;28;20432;-68
2022/08/19 20:26:22;;;;;;;4.35;2.65;;;22.20;74.20;;;;;;5034180;28;20431;-68
2022/08/19 20:28:49;;;;;;;3.00;2.70;;;22.10;74.20;;;;;;5038310;28;20420;-68
2022/08/19 20:31:18;;;;;;;2.75;2.55;;;22.10;74.40;;;;;;5033345;28;20433;-68
2022/08/19 20:33:45;;;;;;;2.72;2.53;;;22.00;74.90;;;;;;5040475;28;20517;-68
2022/08/19 20:36:12;;;;;;;2.30;2.10;;;22.00;74.90;;;;;;5039483;28;20412;-68
2022/08/19 20:38:39;;;;;;;2.95;2.22;;;21.90;75.70;;;;;;5037616;28;21054;-68
2022/08/19 20:41:06;;;;;;;2.70;2.50;;;21.70;76.50;;;;;;5035810;28;20446;-67
2022/08/19 20:43:34;;;;;;;3.58;2.92;;;21.60;78.10;;;;;;5040305;28;20547;-68
2022/08/19 20:46:02;;;;;;;2.78;2.58;;;21.60;77.30;;;;;;5035133;28;20442;-67
2022/08/19 20:48:30;;;;;;;3.17;2.88;;;21.60;77.40;;;;;;5033889;28;21378;-67
2022/08/19 20:50:57;;;;;;;3.00;2.80;;;21.60;77.70;;;;;;5037606;28;20502;-68
2022/08/19 20:53:26;;;;;;;2.70;2.50;;;21.50;77.80;;;;;;5035036;28;20587;-68
2022/08/19 20:55:53;;;;;;;3.00;2.70;;;21.40;78.30;;;;;;5033991;28;20530;-67
2022/08/19 20:58:23;;;;;;;2.80;2.60;;;21.40;78.80;;;;;;5034405;28;20429;-71
2022/08/19 21:00:51;;;;;;;2.90;2.70;;;21.40;79.00;;;;;;5035780;28;20544;-71
2022/08/19 21:03:20;;;;;;;2.75;2.40;;;21.40;79.30;;;;;;5037070;28;20576;-71
2022/08/19 21:05:49;;;;;;;2.95;2.40;;;21.40;78.90;;;;;;5037409;28;20413;-69
2022/08/19 21:08:17;;;;;;;3.43;2.50;;;21.40;79.40;;;;;;5034227;28;20429;-72
2022/08/19 21:10:44;;;;;;;3.40;2.33;;;21.30;79.80;;;;;;5034711;28;20441;-71
2022/08/19 21:13:11;;;;;;;2.60;2.40;;;21.20;80.20;;;;;;5031514;28;20809;-71
2022/08/19 21:15:41;;;;;;;2.38;2.17;;;21.20;80.70;;;;;;5032513;28;20635;-71
2022/08/19 21:18:10;;;;;;;3.63;2.60;;;21.20;81.00;;;;;;5031332;28;21337;-71
2022/08/19 21:20:37;;;;;;;4.03;2.50;;;21.10;81.50;;;;;;5032179;28;20527;-72
2022/08/19 21:23:06;;;;;;;2.70;2.50;;;21.00;82.20;;;;;;5030893;28;20437;-72
2022/08/19 21:25:33;;;;;;;2.78;2.50;;;21.00;82.40;;;;;;5027253;28;20537;-70
2022/08/19 21:28:00;;;;;;;2.63;2.42;;;21.00;82.40;;;;;;5035561;28;20445;-72
2022/08/19 21:30:27;;;;;;;2.65;2.45;;;21.10;82.20;;;;;;5034145;28;21137;-71
2022/08/19 21:32:54;;;;;;;4.65;2.40;;;21.10;82.10;;;;;;5036890;28;20417;-72
2022/08/19 21:35:22;;;;;;;3.35;2.25;;;21.10;82.10;;;;;;5036586;28;20539;-71
2022/08/19 21:37:49;;;;;;;3.05;2.50;;;21.20;81.90;;;;;;5034346;28;20498;-72
2022/08/19 21:40:18;;;;;;;3.08;2.30;;;21.10;82.00;;;;;;5033289;28;20433;-72
2022/08/19 21:42:45;;;;;;;2.70;2.50;;;21.10;82.20;;;;;;5033899;28;20506;-71
2022/08/19 21:45:13;;;;;;;2.67;2.47;;;21.10;82.10;;;;;;5034805;28;20440;-71
2022/08/19 21:47:40;;;;;;;2.70;2.50;;;21.10;83.20;;;;;;5034635;28;20516;-72
2022/08/19 21:50:09;;;;;;;2.80;2.60;;;21.10;82.30;;;;;;5034983;28;20534;-72
2022/08/19 21:52:37;;;;;;;3.50;2.50;;;21.10;82.20;;;;;;5032539;28;20440;-74
2022/08/19 21:55:05;;;;;;;3.38;2.60;;;21.00;82.40;;;;;;5034791;28;20493;-74
2022/08/19 21:57:33;;;;;;;2.83;2.50;;;21.00;82.50;;;;;;5040276;28;20453;-73
2022/08/19 22:00:00;;;;;;;3.45;2.65;;;21.00;83.40;;;;;;5037418;28;20513;-74
2022/08/19 22:02:28;;;;;;;2.40;2.20;;;21.00;82.50;;;;;;5041310;28;20626;-75
2022/08/19 22:04:55;;;;;;;3.80;2.60;;;21.00;82.60;;;;;;5041062;28;20444;-73
2022/08/19 22:07:22;;;;;;;3.28;2.78;;;21.10;82.50;;;;;;5036620;28;20429;-73
2022/08/19 22:09:50;;;;;;;3.72;2.85;;;21.00;82.40;;;;;;5040643;28;20504;-73
2022/08/19 22:12:23;;;;;;;3.40;2.60;;;21.10;82.40;;;;;;5037846;28;20976;-74
2022/08/19 22:14:53;;;;;;;3.05;2.75;;;21.10;82.20;;;;;;5038382;28;20534;-74
2022/08/19 22:17:21;;;;;;;3.13;2.60;;;21.20;82.20;;;;;;5037215;28;20431;-75
2022/08/19 22:19:48;;;;;;;3.05;2.85;;;21.20;81.80;;;;;;5040192;28;20491;-76
2022/08/19 22:22:21;;;;;;;3.30;3.00;;;21.20;82.00;;;;;;5037287;28;20425;-74
2022/08/19 22:24:47;;;;;;;3.10;2.78;;;21.10;82.30;;;;;;5038317;28;20531;-76
2022/08/19 22:27:14;;;;;;;3.40;2.50;;;21.10;82.60;;;;;;5035938;28;20429;-76
2022/08/19 22:29:41;;;;;;;3.30;3.00;;;21.10;82.60;;;;;;5033641;28;20444;-74
2022/08/19 22:32:09;;;;;;;3.40;3.10;;;21.10;82.50;;;;;;5036446;28;20530;-75
2022/08/19 22:34:37;;;;;;;3.50;3.20;;;21.10;82.70;;;;;;5039244;28;20575;-74
2022/08/19 22:37:05;;;;;;;3.28;2.97;;;21.00;82.90;;;;;;5038821;28;20523;-76
2022/08/19 22:39:32;;;;;;;2.93;2.73;;;21.00;83.20;;;;;;5041703;28;20515;-74
2022/08/19 22:41:59;;;;;;;3.30;3.10;;;21.10;83.20;;;;;;5038195;28;20896;-76
2022/08/19 22:44:26;;;;;;;3.30;2.90;;;21.10;83.00;;;;;;5036628;28;20441;-75
2022/08/19 22:46:53;;;;;;;3.15;2.85;;;21.10;82.80;;;;;;5036643;28;20429;-76
2022/08/19 22:49:21;;;;;;;3.90;3.40;;;21.10;82.80;;;;;;5040890;28;20518;-75
2022/08/19 22:54:32;;;;;;;4.85;3.50;;;21.10;82.90;;;;;;5056886;22;20996;-72
2022/08/19 22:56:59;;;;;;;3.70;3.40;;;21.10;83.00;;;;;;5032354;28;20439;-75
2022/08/19 22:59:26;;;;;;;4.43;3.40;;;21.10;83.30;;;;;;5042941;28;20426;-72
2022/08/19 23:01:53;;;;;;;3.83;3.40;;;21.00;83.50;;;;;;5046849;28;20452;-74
2022/08/19 23:04:22;;;;;;;4.63;3.50;;;21.00;84.10;;;;;;5047016;28;20434;-74
2022/08/19 23:06:51;;;;;;;4.82;4.18;;;21.00;84.00;;;;;;5035484;28;22425;-72
2022/08/19 23:09:18;;;;;;;4.07;3.67;;;20.90;84.40;;;;;;5027579;28;20434;-72
2022/08/19 23:11:46;;;;;;;3.70;3.30;;;20.90;84.60;;;;;;5023593;28;20907;-73
2022/08/19 23:14:14;;;;;;;3.90;3.60;;;20.90;84.60;;;;;;5024171;28;20897;-73
2022/08/19 23:16:41;;;;;;;4.20;3.80;;;20.90;84.30;;;;;;5026184;28;20607;-72
2022/08/19 23:19:08;;;;;;;3.97;3.57;;;21.00;84.40;;;;;;5027031;28;20887;-73
2022/08/19 23:21:37;;;;;;;3.77;3.47;;;21.00;84.20;;;;;;5027223;28;20941;-72
2022/08/19 23:24:05;;;;;;;4.32;3.80;;;21.00;84.30;;;;;;5027078;28;20514;-73
2022/08/19 23:26:32;;;;;;;4.30;3.75;;;21.00;84.30;;;;;;5025237;28;20973;-73
2022/08/19 23:31:43;;;;;;;3.80;3.50;;;21.10;83.80;;;;;;5026359;28;20451;-72
2022/08/19 23:34:10;;;;;;;4.60;4.30;;;21.00;84.70;;;;;;5027419;28;20903;-73
2022/08/19 23:36:38;;;;;;;4.10;3.70;;;21.00;84.00;;;;;;5026309;28;20522;-73
2022/08/19 23:39:05;;;;;;;4.43;4.05;;;21.00;84.00;;;;;;5028526;28;20506;-72
2022/08/19 23:41:32;;;;;;;4.50;4.20;;;21.00;84.00;;;;;;5027105;28;20470;-72
2022/08/19 23:43:59;;;;;;;4.10;3.80;;;21.00;83.90;;;;;;5022967;28;20514;-73
2022/08/19 23:46:26;;;;;;;4.73;4.33;;;21.00;84.10;;;;;;5026410;28;20437;-73
2022/08/19 23:48:53;;;;;;;4.60;4.20;;;21.00;84.30;;;;;;5028164;28;20434;-72
2022/08/19 23:51:20;;;;;;;5.40;4.37;;;20.90;84.40;;;;;;5027325;28;20461;-73
2022/08/19 23:53:48;;;;;;;4.80;4.00;;;20.90;84.50;;;;;;5029740;28;20530;-73
2022/08/19 23:56:15;;;;;;;4.60;4.20;;;20.90;84.50;;;;;;5026832;28;20439;-72
2022/08/19 23:58:42;;;;;;;4.30;3.90;;;20.90;84.40;;;;;;5029932;28;20430;-72
